Rayville, Louisiana
Current Conditions -  °F | °C
As of 12:53 AM on Wednesday 22 Oct 2014 (Local Time) from KMLU Reporting Station
Clear Clear  
Wind Chill: 62°   Ceiling: Unl
Heat Index: 62°   Visibility: 10mi
Dew Point: 57°   Wind: 7mph
Humidity: 84%   Direction: 60°ENE
Pressure: 30.08"   Gusts: NA
Location:  32.48°N, 91.75°W
Report Text: KMLU 220553Z AUTO 06006KT 10SM CLR 17/14 A3008 RMK AO2 SLP186 P0001 60001 T01670139 10194 20144 402670111 51002
Loading
Personal Weather Stations






























Interactive Weather Map New forecast layout! Learn more

10-Day Weather Forecast

Advertisements
Track Severe Weather on mobile